createdAt,value
2022-07-25T00:02:21.016Z,25.30
2022-07-25T00:04:49.349Z,25.30
2022-07-25T00:07:17.516Z,25.20
2022-07-25T00:09:45.461Z,25.20
2022-07-25T00:12:14.066Z,25.20
2022-07-25T00:14:43.439Z,25.10
2022-07-25T00:17:11.440Z,25.10
2022-07-25T00:19:39.445Z,25.10
2022-07-25T00:22:07.509Z,25.00
2022-07-25T00:24:35.556Z,25.10
2022-07-25T00:27:03.822Z,25.00
2022-07-25T00:29:31.700Z,24.90
2022-07-25T00:32:01.048Z,24.90
2022-07-25T00:34:28.950Z,24.80
2022-07-25T00:36:56.833Z,24.80
2022-07-25T00:39:24.707Z,24.70
2022-07-25T00:41:52.652Z,24.70
2022-07-25T00:44:25.087Z,24.60
2022-07-25T00:46:53.507Z,24.60
2022-07-25T00:49:22.979Z,24.50
2022-07-25T00:51:51.470Z,24.50
2022-07-25T00:54:20.066Z,24.50
2022-07-25T00:56:49.656Z,24.50
2022-07-25T00:59:17.709Z,24.50
2022-07-25T01:01:48.241Z,24.40
2022-07-25T01:04:16.775Z,24.40
2022-07-25T01:06:46.098Z,24.30
2022-07-25T01:09:14.696Z,24.30
2022-07-25T01:11:42.633Z,24.30
2022-07-25T01:14:10.523Z,24.20
2022-07-25T01:16:38.522Z,24.10
2022-07-25T01:19:06.501Z,24.10
2022-07-25T01:21:39.117Z,24.10
2022-07-25T01:24:08.650Z,24.10
2022-07-25T01:26:37.150Z,24.10
2022-07-25T01:29:05.291Z,24.10
2022-07-25T01:31:33.491Z,24.00
2022-07-25T01:34:01.423Z,24.00
2022-07-25T01:36:29.479Z,24.00
2022-07-25T01:38:58.690Z,23.90
2022-07-25T01:41:26.603Z,23.90
2022-07-25T01:43:54.517Z,23.90
2022-07-25T01:46:22.423Z,23.80
2022-07-25T01:48:50.516Z,23.80
2022-07-25T01:51:20.471Z,23.80
2022-07-25T01:53:48.903Z,23.80
2022-07-25T01:56:20.840Z,23.70
2022-07-25T01:58:50.391Z,23.70
2022-07-25T02:01:19.395Z,23.70
2022-07-25T02:03:49.800Z,23.70
2022-07-25T02:06:19.192Z,23.60
2022-07-25T02:08:47.051Z,23.60
2022-07-25T02:11:15.037Z,23.60
2022-07-25T02:13:44.623Z,23.50
2022-07-25T02:16:12.901Z,23.50
2022-07-25T02:18:40.852Z,23.50
2022-07-25T02:21:14.563Z,23.40
2022-07-25T02:23:42.983Z,23.40
2022-07-25T02:26:10.999Z,23.40
2022-07-25T02:28:38.939Z,23.30
2022-07-25T02:31:09.241Z,23.30
2022-07-25T02:33:37.637Z,23.30
2022-07-25T02:36:05.801Z,23.20
2022-07-25T02:38:33.767Z,23.20
2022-07-25T02:41:01.761Z,23.20
2022-07-25T02:43:29.670Z,23.20
2022-07-25T02:45:57.811Z,23.10
2022-07-25T02:48:27.161Z,23.10
2022-07-25T02:50:55.121Z,23.10
2022-07-25T02:53:40.294Z,23.10
2022-07-25T02:56:10.877Z,23.00
2022-07-25T02:58:39.424Z,23.00
2022-07-25T03:01:07.879Z,22.90
2022-07-25T03:03:37.341Z,22.90
2022-07-25T03:06:05.750Z,22.90
2022-07-25T03:08:33.660Z,22.90
2022-07-25T03:11:01.588Z,22.80
2022-07-25T03:13:29.824Z,22.80
2022-07-25T03:15:57.762Z,22.70
2022-07-25T03:18:25.611Z,22.70
2022-07-25T03:20:54.920Z,22.70
2022-07-25T03:23:24.967Z,22.70
2022-07-25T03:25:52.833Z,22.70
2022-07-25T03:28:20.768Z,22.60
2022-07-25T03:30:48.654Z,22.60
2022-07-25T03:33:16.494Z,22.60
2022-07-25T03:35:46.912Z,22.60
2022-07-25T03:38:16.119Z,22.50
2022-07-25T03:40:44.125Z,22.50
2022-07-25T03:43:12.027Z,22.50
2022-07-25T03:45:40.137Z,22.40
2022-07-25T03:48:08.227Z,22.40
2022-07-25T03:50:36.183Z,22.40
2022-07-25T03:53:04.098Z,22.40
2022-07-25T03:55:33.372Z,22.30
2022-07-25T03:58:01.264Z,22.30
2022-07-25T04:00:29.247Z,22.30
2022-07-25T04:02:57.954Z,22.30
2022-07-25T04:05:25.978Z,22.20
2022-07-25T04:07:53.820Z,22.20
2022-07-25T04:10:21.907Z,22.10
2022-07-25T04:12:51.193Z,22.10
2022-07-25T04:15:19.159Z,22.10
2022-07-25T04:17:47.117Z,22.10
2022-07-25T04:20:15.003Z,22.10
2022-07-25T04:22:46.948Z,22.00
2022-07-25T04:25:15.147Z,22.00
2022-07-25T04:27:43.359Z,22.00
2022-07-25T04:30:13.976Z,21.90
2022-07-25T04:32:52.095Z,21.90
2022-07-25T04:35:19.985Z,21.90
2022-07-25T04:37:47.883Z,21.90
2022-07-25T04:40:15.849Z,21.90
2022-07-25T04:42:43.791Z,21.80
2022-07-25T04:45:13.931Z,21.80
2022-07-25T04:47:45.872Z,21.80
2022-07-25T04:50:13.896Z,21.80
2022-07-25T04:52:41.875Z,21.70
2022-07-25T04:55:10.363Z,21.80
2022-07-25T04:57:38.547Z,21.80
2022-07-25T05:00:08.880Z,21.70
2022-07-25T05:02:38.546Z,21.70
2022-07-25T05:05:08.472Z,21.70
2022-07-25T05:07:49.206Z,21.70
2022-07-25T05:10:17.286Z,21.70
2022-07-25T05:12:45.151Z,21.70
2022-07-25T05:15:13.527Z,21.70
2022-07-25T05:17:42.754Z,21.70
2022-07-25T05:20:12.116Z,21.70
2022-07-25T05:22:40.054Z,21.80
2022-07-25T05:25:10.115Z,21.80
2022-07-25T05:27:39.743Z,21.80
2022-07-25T05:30:10.339Z,21.80
2022-07-25T05:32:38.515Z,21.80
2022-07-25T05:35:09.865Z,21.80
2022-07-25T05:37:38.885Z,21.80
2022-07-25T05:40:08.395Z,21.80
2022-07-25T05:42:36.842Z,21.90
2022-07-25T05:45:05.482Z,21.90
2022-07-25T05:47:33.471Z,21.90
2022-07-25T05:50:02.267Z,22.00
2022-07-25T05:52:31.517Z,22.00
2022-07-25T05:54:59.617Z,22.00
2022-07-25T05:57:27.551Z,22.00
2022-07-25T05:59:55.462Z,22.00
2022-07-25T06:02:23.568Z,22.10
2022-07-25T06:04:51.618Z,22.10
2022-07-25T06:07:19.594Z,22.10
2022-07-25T06:09:48.865Z,22.20
2022-07-25T06:12:16.770Z,22.30
2022-07-25T06:14:45.438Z,22.30
2022-07-25T06:17:13.649Z,22.40
2022-07-25T06:19:41.710Z,22.40
2022-07-25T06:22:11.194Z,22.50
2022-07-25T06:24:39.216Z,22.50
2022-07-25T06:27:09.283Z,22.50
2022-07-25T06:29:38.130Z,22.60
2022-07-25T06:32:06.629Z,22.60
2022-07-25T06:34:34.682Z,22.70
2022-07-25T06:37:02.606Z,22.70
2022-07-25T06:39:30.773Z,22.80
2022-07-25T06:41:59.719Z,22.90
2022-07-25T06:44:28.975Z,22.90
2022-07-25T06:46:57.012Z,23.00
2022-07-25T06:49:24.985Z,23.00
2022-07-25T06:51:52.910Z,23.10
2022-07-25T06:54:20.871Z,23.20
2022-07-25T06:56:48.749Z,23.20
2022-07-25T06:59:16.649Z,23.30
2022-07-25T07:01:51.007Z,23.40
2022-07-25T07:04:19.506Z,23.40
2022-07-25T07:06:47.381Z,23.50
2022-07-25T07:09:15.333Z,23.50
2022-07-25T07:11:43.251Z,23.60
2022-07-25T07:14:11.207Z,23.70
2022-07-25T07:16:41.336Z,23.80
2022-07-25T07:19:11.991Z,23.90
2022-07-25T07:21:39.899Z,23.90
2022-07-25T07:24:22.100Z,24.00
2022-07-25T07:26:51.520Z,24.10
2022-07-25T07:29:19.398Z,24.10
2022-07-25T07:31:47.356Z,24.20
2022-07-25T07:34:16.838Z,24.30
2022-07-25T07:36:44.712Z,24.30
2022-07-25T07:39:12.713Z,24.40
2022-07-25T07:41:43.763Z,24.50
2022-07-25T07:44:11.785Z,24.50
2022-07-25T07:46:39.806Z,24.60
2022-07-25T07:49:08.142Z,24.60
2022-07-25T07:51:37.612Z,24.70
2022-07-25T07:54:23.748Z,24.80
2022-07-25T07:56:51.750Z,24.80
2022-07-25T07:59:19.695Z,24.90
2022-07-25T08:01:47.673Z,25.00
2022-07-25T08:04:15.648Z,25.00
2022-07-25T08:06:44.987Z,25.10
2022-07-25T08:09:12.898Z,25.20
2022-07-25T08:11:40.915Z,25.30
2022-07-25T08:14:09.472Z,25.40
2022-07-25T08:16:37.883Z,25.50
2022-07-25T08:19:05.932Z,25.50
2022-07-25T08:21:33.942Z,25.60
2022-07-25T08:24:03.378Z,25.70
2022-07-25T08:26:33.823Z,25.80
2022-07-25T08:29:18.297Z,25.80
2022-07-25T08:31:47.084Z,26.00
2022-07-25T08:34:15.071Z,26.10
2022-07-25T08:36:43.206Z,26.20
2022-07-25T08:39:12.458Z,26.30
2022-07-25T08:41:41.741Z,26.40
2022-07-25T08:44:10.161Z,26.50
2022-07-25T08:46:41.578Z,26.60
2022-07-25T08:49:10.520Z,26.70
2022-07-25T08:51:39.667Z,26.80
2022-07-25T08:54:08.326Z,26.90
2022-07-25T08:56:37.975Z,27.10
2022-07-25T08:59:05.856Z,27.20
2022-07-25T09:01:35.143Z,27.20
2022-07-25T09:04:04.894Z,27.40
2022-07-25T09:06:33.371Z,27.50
2022-07-25T09:09:04.612Z,27.50
2022-07-25T09:11:35.854Z,27.60
2022-07-25T09:14:08.405Z,27.70
2022-07-25T09:16:40.119Z,27.80
2022-07-25T09:19:10.616Z,27.90
2022-07-25T09:21:40.669Z,28.00
2022-07-25T09:24:13.504Z,28.00
2022-07-25T09:26:48.696Z,28.10
2022-07-25T09:29:24.670Z,28.20
2022-07-25T09:31:54.933Z,28.30
2022-07-25T09:34:34.514Z,28.40
2022-07-25T09:37:03.389Z,28.50
2022-07-25T09:39:46.489Z,28.60
2022-07-25T09:42:21.600Z,28.60
2022-07-25T09:45:02.863Z,28.70
2022-07-25T09:47:31.611Z,28.80
2022-07-25T09:49:59.534Z,28.90
2022-07-25T09:52:27.792Z,29.00
2022-07-25T09:54:55.739Z,29.10
2022-07-25T09:57:25.800Z,29.10
2022-07-25T09:59:53.930Z,29.20
2022-07-25T10:02:40.373Z,29.30
2022-07-25T10:05:15.858Z,29.30
2022-07-25T10:07:47.357Z,29.30
2022-07-25T10:10:29.436Z,29.50
2022-07-25T10:13:05.234Z,29.60
2022-07-25T10:15:49.112Z,29.70
2022-07-25T10:18:20.662Z,29.70
2022-07-25T10:20:50.050Z,29.90
2022-07-25T10:23:20.102Z,30.00
2022-07-25T10:25:49.330Z,30.00
2022-07-25T10:28:20.897Z,30.10
2022-07-25T10:30:58.134Z,30.20
2022-07-25T10:33:27.652Z,30.30
2022-07-25T10:36:06.250Z,30.40
2022-07-25T10:38:34.504Z,30.40
2022-07-25T10:41:03.325Z,30.40
2022-07-25T10:43:38.670Z,30.40
2022-07-25T10:46:14.056Z,30.50
2022-07-25T10:48:43.485Z,30.50
2022-07-25T10:51:13.740Z,30.60
2022-07-25T10:53:48.318Z,30.60
2022-07-25T10:56:19.790Z,30.70
2022-07-25T10:58:51.281Z,30.80
2022-07-25T11:01:24.781Z,30.90
2022-07-25T11:03:55.470Z,30.90
2022-07-25T11:06:35.637Z,31.00
2022-07-25T11:09:04.932Z,31.00
2022-07-25T11:11:37.743Z,31.00
2022-07-25T11:14:06.655Z,31.10
2022-07-25T11:16:34.604Z,31.10
2022-07-25T11:19:04.283Z,31.20
2022-07-25T11:21:32.505Z,31.20
2022-07-25T11:24:00.397Z,31.20
2022-07-25T11:26:28.658Z,31.30
2022-07-25T11:28:56.551Z,31.20
2022-07-25T11:31:24.815Z,31.20
2022-07-25T11:33:52.960Z,31.20
2022-07-25T11:36:22.351Z,31.30
2022-07-25T11:38:50.512Z,31.40
2022-07-25T11:41:29.576Z,31.50
2022-07-25T11:43:57.705Z,31.50
2022-07-25T11:46:25.773Z,31.50
2022-07-25T11:49:05.874Z,31.50
2022-07-25T11:51:38.697Z,31.50
2022-07-25T11:54:10.990Z,31.50
2022-07-25T11:56:43.033Z,31.50
2022-07-25T11:59:12.301Z,31.50
2022-07-25T12:01:41.805Z,31.60
2022-07-25T12:04:15.214Z,31.60
2022-07-25T12:06:46.129Z,31.60
2022-07-25T12:09:18.871Z,31.60
2022-07-25T12:11:48.438Z,31.70
2022-07-25T12:14:17.013Z,31.90
2022-07-25T12:16:45.168Z,32.00
2022-07-25T12:19:21.126Z,32.00
2022-07-25T12:21:50.408Z,32.20
2022-07-25T12:24:18.386Z,32.30
2022-07-25T12:26:46.250Z,32.40
2022-07-25T12:29:14.275Z,32.30
2022-07-25T12:31:42.167Z,32.30
2022-07-25T12:34:10.065Z,32.30
2022-07-25T12:36:43.741Z,32.30
2022-07-25T12:39:13.009Z,32.30
2022-07-25T12:41:42.424Z,32.40
2022-07-25T12:44:10.722Z,32.50
2022-07-25T12:46:40.230Z,32.50
2022-07-25T12:49:08.601Z,32.60
2022-07-25T12:51:36.682Z,32.70
2022-07-25T12:54:04.988Z,32.70
2022-07-25T12:56:35.303Z,32.70
2022-07-25T12:59:03.810Z,32.60
2022-07-25T13:01:32.031Z,32.60
2022-07-25T13:04:00.032Z,32.60
2022-07-25T13:06:34.407Z,32.60
2022-07-25T13:09:05.922Z,32.60
2022-07-25T13:11:35.419Z,32.70
2022-07-25T13:14:03.326Z,32.70
2022-07-25T13:16:31.336Z,32.60
2022-07-25T13:18:59.541Z,32.60
2022-07-25T13:21:27.431Z,32.60
2022-07-25T13:23:55.347Z,32.70
2022-07-25T13:26:23.323Z,32.70
2022-07-25T13:28:56.592Z,32.80
2022-07-25T13:31:28.091Z,32.80
2022-07-25T13:33:56.243Z,32.80
2022-07-25T13:36:24.239Z,32.80
2022-07-25T13:38:52.173Z,32.80
2022-07-25T13:41:20.066Z,32.80
2022-07-25T13:43:49.048Z,32.80
2022-07-25T13:46:18.532Z,32.80
2022-07-25T13:48:46.606Z,32.80
2022-07-25T13:51:14.913Z,32.80
2022-07-25T13:53:44.748Z,32.80
2022-07-25T13:56:14.090Z,32.90
2022-07-25T13:58:43.114Z,32.90
2022-07-25T14:01:12.548Z,32.80
2022-07-25T14:03:41.859Z,32.90
2022-07-25T14:06:12.132Z,32.90
2022-07-25T14:08:41.226Z,32.90
2022-07-25T14:11:09.614Z,32.90
2022-07-25T14:13:38.004Z,32.90
2022-07-25T14:16:06.728Z,32.90
2022-07-25T14:18:34.686Z,32.80
2022-07-25T14:21:04.118Z,32.80
2022-07-25T14:23:32.056Z,32.90
2022-07-25T14:26:00.360Z,32.80
2022-07-25T14:28:28.329Z,32.90
2022-07-25T14:30:56.562Z,32.90
2022-07-25T14:33:24.471Z,32.80
2022-07-25T14:35:52.407Z,32.80
2022-07-25T14:38:21.874Z,32.80
2022-07-25T14:40:49.877Z,32.80
2022-07-25T14:43:17.882Z,32.80
2022-07-25T14:45:45.887Z,32.80
2022-07-25T14:48:13.791Z,32.90
2022-07-25T14:50:41.695Z,32.80
2022-07-25T14:53:09.662Z,32.90
2022-07-25T14:55:39.132Z,32.90
2022-07-25T14:58:07.590Z,33.00
2022-07-25T15:00:35.573Z,33.00
2022-07-25T15:03:03.531Z,33.00
2022-07-25T15:05:31.439Z,33.00
2022-07-25T15:07:59.587Z,32.90
2022-07-25T15:10:27.518Z,32.90
2022-07-25T15:13:20.546Z,33.00
2022-07-25T15:15:44.689Z,33.10
2022-07-25T15:18:14.124Z,33.10
2022-07-25T15:20:42.417Z,33.10
2022-07-25T15:23:10.334Z,33.20
2022-07-25T15:26:01.131Z,33.20
2022-07-25T15:28:27.921Z,33.20
2022-07-25T15:30:56.112Z,33.30
2022-07-25T15:33:24.082Z,33.30
2022-07-25T15:35:52.237Z,33.40
2022-07-25T15:38:20.181Z,33.40
2022-07-25T15:40:48.458Z,33.40
2022-07-25T15:43:16.466Z,33.40
2022-07-25T15:45:46.859Z,33.50
2022-07-25T15:48:15.458Z,33.50
2022-07-25T15:50:45.033Z,33.50
2022-07-25T15:53:13.538Z,33.50
2022-07-25T15:55:42.532Z,33.50
2022-07-25T15:58:12.076Z,33.50
2022-07-25T16:00:40.737Z,33.50
2022-07-25T16:03:11.120Z,33.50
2022-07-25T16:05:39.261Z,33.50
2022-07-25T16:08:08.145Z,33.40
2022-07-25T16:10:36.680Z,33.40
2022-07-25T16:13:04.982Z,33.40
2022-07-25T16:15:32.950Z,33.50
2022-07-25T16:18:02.906Z,33.50
2022-07-25T16:20:33.867Z,33.50
2022-07-25T16:23:02.253Z,33.50
2022-07-25T16:25:30.706Z,33.50
2022-07-25T16:27:59.681Z,33.50
2022-07-25T16:30:27.693Z,33.40
2022-07-25T16:32:55.969Z,33.30
2022-07-25T16:35:24.174Z,33.30
2022-07-25T16:37:53.445Z,33.40
2022-07-25T16:40:22.973Z,33.30
2022-07-25T16:42:55.672Z,33.30
2022-07-25T16:45:23.708Z,33.20
2022-07-25T16:47:51.615Z,33.30
2022-07-25T16:50:19.679Z,33.20
2022-07-25T16:52:48.249Z,33.00
2022-07-25T16:55:17.844Z,32.90
2022-07-25T16:57:45.746Z,32.80
2022-07-25T17:00:14.380Z,32.80
2022-07-25T17:02:43.893Z,32.80
2022-07-25T17:05:11.851Z,32.70
2022-07-25T17:07:40.458Z,32.70
2022-07-25T17:10:09.397Z,32.60
2022-07-25T17:12:38.706Z,32.50
2022-07-25T17:15:07.941Z,32.40
2022-07-25T17:17:35.852Z,32.40
2022-07-25T17:20:04.138Z,32.30
2022-07-25T17:22:32.436Z,32.20
2022-07-25T17:25:00.408Z,32.20
2022-07-25T17:27:28.387Z,32.10
2022-07-25T17:29:57.764Z,32.00
2022-07-25T17:32:29.716Z,32.00
2022-07-25T17:34:58.259Z,31.90
2022-07-25T17:37:27.658Z,31.80
2022-07-25T17:39:55.721Z,31.70
2022-07-25T17:42:23.971Z,31.60
2022-07-25T17:44:52.187Z,31.60
2022-07-25T17:47:21.494Z,31.50
2022-07-25T17:49:51.211Z,31.40
2022-07-25T17:52:19.229Z,31.40
2022-07-25T17:54:47.141Z,31.30
2022-07-25T17:57:15.052Z,31.30
2022-07-25T17:59:43.073Z,31.30
2022-07-25T18:02:11.419Z,31.20
2022-07-25T18:04:40.724Z,31.10
2022-07-25T18:07:08.663Z,31.00
2022-07-25T18:09:36.860Z,31.00
2022-07-25T18:12:05.410Z,30.90
2022-07-25T18:14:34.528Z,30.80
2022-07-25T18:17:02.556Z,30.80
2022-07-25T18:19:32.471Z,30.70
2022-07-25T18:22:01.741Z,30.70
2022-07-25T18:24:30.226Z,30.60
2022-07-25T18:26:58.459Z,30.60
2022-07-25T18:29:26.335Z,30.50
2022-07-25T18:31:54.281Z,30.50
2022-07-25T18:34:22.209Z,30.40
2022-07-25T18:36:50.408Z,30.40
2022-07-25T18:39:19.696Z,30.40
2022-07-25T18:41:47.700Z,30.30
2022-07-25T18:44:15.903Z,30.20
2022-07-25T18:46:45.530Z,30.20
2022-07-25T18:49:14.047Z,30.10
2022-07-25T18:51:42.097Z,30.00
2022-07-25T18:54:10.330Z,30.00
2022-07-25T18:56:39.947Z,30.00
2022-07-25T18:59:08.219Z,30.00
2022-07-25T19:01:37.343Z,30.00
2022-07-25T19:04:06.211Z,29.90
2022-07-25T19:06:34.617Z,29.90
2022-07-25T19:09:02.600Z,29.80
2022-07-25T19:11:30.500Z,29.80
2022-07-25T19:13:59.717Z,29.70
2022-07-25T19:16:27.729Z,29.70
2022-07-25T19:18:55.756Z,29.70
2022-07-25T19:21:23.715Z,29.60
2022-07-25T19:23:51.663Z,29.60
2022-07-25T19:26:20.170Z,29.60
2022-07-25T19:28:48.233Z,29.50
2022-07-25T19:31:17.927Z,29.40
2022-07-25T19:33:46.531Z,29.50
2022-07-25T19:36:14.703Z,29.40
2022-07-25T19:38:42.597Z,29.40
2022-07-25T19:41:10.539Z,29.30
2022-07-25T19:43:38.407Z,29.30
2022-07-25T19:46:06.487Z,29.20
2022-07-25T19:48:35.901Z,29.20
2022-07-25T19:51:03.916Z,29.10
2022-07-25T19:53:32.530Z,29.10
2022-07-25T19:56:01.264Z,29.00
2022-07-25T19:58:29.158Z,29.00
2022-07-25T20:00:57.018Z,28.90
2022-07-25T20:03:24.957Z,28.90
2022-07-25T20:05:54.162Z,28.90
2022-07-25T20:08:22.074Z,28.90
2022-07-25T20:10:50.039Z,28.90
2022-07-25T20:13:18.019Z,28.90
2022-07-25T20:15:45.930Z,28.90
2022-07-25T20:18:18.910Z,28.80
2022-07-25T20:20:47.691Z,28.80
2022-07-25T20:23:17.022Z,28.60
2022-07-25T20:25:45.306Z,28.60
2022-07-25T20:28:13.206Z,28.60
2022-07-25T20:30:41.593Z,28.50
2022-07-25T20:33:10.011Z,28.50
2022-07-25T20:35:38.560Z,28.50
2022-07-25T20:38:09.380Z,28.50
2022-07-25T20:40:46.300Z,28.50
2022-07-25T20:43:16.324Z,28.40
2022-07-25T20:45:44.430Z,28.30
2022-07-25T20:48:12.408Z,28.20
2022-07-25T20:50:41.130Z,28.10
2022-07-25T20:53:09.665Z,28.00
2022-07-25T20:55:39.328Z,28.00
2022-07-25T20:58:07.470Z,28.00
2022-07-25T21:00:35.434Z,27.90
2022-07-25T21:03:03.574Z,27.90
2022-07-25T21:05:31.885Z,27.90
2022-07-25T21:07:59.915Z,27.80
2022-07-25T21:10:28.006Z,27.80
2022-07-25T21:12:57.263Z,27.70
2022-07-25T21:15:25.489Z,27.70
2022-07-25T21:17:53.405Z,27.70
2022-07-25T21:20:21.371Z,27.70
2022-07-25T21:22:49.358Z,27.70
2022-07-25T21:25:17.266Z,27.60
2022-07-25T21:27:45.159Z,27.60
2022-07-25T21:30:15.178Z,27.50
2022-07-25T21:32:43.521Z,27.50
2022-07-25T21:35:12.092Z,27.50
2022-07-25T21:37:40.048Z,27.50
2022-07-25T21:40:09.446Z,27.50
2022-07-25T21:42:37.824Z,27.50
2022-07-25T21:45:06.837Z,27.40
2022-07-25T21:47:36.069Z,27.40
2022-07-25T21:50:24.918Z,27.40
2022-07-25T21:52:53.368Z,27.30
2022-07-25T21:55:21.802Z,27.30
2022-07-25T21:57:51.172Z,27.30
2022-07-25T22:00:20.074Z,27.20
2022-07-25T22:02:49.692Z,27.10
2022-07-25T22:05:19.061Z,27.10
2022-07-25T22:07:48.172Z,27.10
2022-07-25T22:10:18.534Z,27.10
2022-07-25T22:12:47.018Z,27.00
2022-07-25T22:15:15.101Z,26.90
2022-07-25T22:17:48.980Z,26.90
2022-07-25T22:20:19.559Z,26.90
2022-07-25T22:22:47.844Z,26.90
2022-07-25T22:25:15.841Z,26.90
2022-07-25T22:27:43.785Z,26.80
2022-07-25T22:30:18.185Z,26.80
2022-07-25T22:32:47.505Z,26.80
2022-07-25T22:35:15.759Z,26.80
2022-07-25T22:37:45.188Z,26.70
2022-07-25T22:40:14.586Z,26.70
2022-07-25T22:42:42.683Z,26.70
2022-07-25T22:45:11.646Z,26.60
2022-07-25T22:47:39.653Z,26.60
2022-07-25T22:50:09.502Z,26.60
2022-07-25T22:52:37.431Z,26.60
2022-07-25T22:55:07.501Z,26.50
2022-07-25T22:57:37.514Z,26.50
2022-07-25T23:00:08.103Z,26.50
2022-07-25T23:02:36.180Z,26.50
2022-07-25T23:05:04.563Z,26.50
2022-07-25T23:07:33.050Z,26.40
2022-07-25T23:10:01.939Z,26.40
2022-07-25T23:12:31.179Z,26.30
2022-07-25T23:14:59.039Z,26.30
2022-07-25T23:17:26.910Z,26.30
2022-07-25T23:19:57.035Z,26.30
2022-07-25T23:22:26.426Z,26.30
2022-07-25T23:24:54.281Z,26.20
2022-07-25T23:27:22.434Z,26.20
2022-07-25T23:29:51.660Z,26.00
2022-07-25T23:32:19.809Z,26.00
2022-07-25T23:34:47.788Z,25.90
2022-07-25T23:37:15.685Z,25.90
2022-07-25T23:39:43.706Z,25.90
2022-07-25T23:42:11.539Z,25.90
2022-07-25T23:44:39.514Z,25.80
2022-07-25T23:47:10.023Z,25.90
2022-07-25T23:49:38.638Z,25.90
2022-07-25T23:52:06.779Z,25.80
2022-07-25T23:54:34.815Z,25.80
2022-07-25T23:57:02.896Z,25.70
2022-07-25T23:59:30.811Z,25.80
